sensor_id;sensor_type;location;lat;lon;timestamp;temperature;humidity
44723;DHT22;30451;48.638;10.624;2023-07-08T00:00:23;27.80;43.20
44723;DHT22;30451;48.638;10.624;2023-07-08T00:02:49;27.80;43.20
44723;DHT22;30451;48.638;10.624;2023-07-08T00:05:17;27.80;43.20
44723;DHT22;30451;48.638;10.624;2023-07-08T00:07:44;27.80;43.20
44723;DHT22;30451;48.638;10.624;2023-07-08T00:10:16;27.80;43.20
44723;DHT22;30451;48.638;10.624;2023-07-08T00:12:44;27.80;43.10
44723;DHT22;30451;48.638;10.624;2023-07-08T00:15:10;27.70;43.10
44723;DHT22;30451;48.638;10.624;2023-07-08T00:17:37;27.80;43.20
44723;DHT22;30451;48.638;10.624;2023-07-08T00:20:22;27.70;43.10
44723;DHT22;30451;48.638;10.624;2023-07-08T00:22:48;27.70;43.10
44723;DHT22;30451;48.638;10.624;2023-07-08T00:25:17;27.70;43.10
44723;DHT22;30451;48.638;10.624;2023-07-08T00:27:45;27.70;43.10
44723;DHT22;30451;48.638;10.624;2023-07-08T00:30:28;27.70;43.10
44723;DHT22;30451;48.638;10.624;2023-07-08T00:32:55;27.70;43.10
44723;DHT22;30451;48.638;10.624;2023-07-08T00:35:33;27.70;43.10
44723;DHT22;30451;48.638;10.624;2023-07-08T00:38:00;27.70;43.10
44723;DHT22;30451;48.638;10.624;2023-07-08T00:40:38;27.60;43.00
44723;DHT22;30451;48.638;10.624;2023-07-08T00:43:05;27.60;43.00
44723;DHT22;30451;48.638;10.624;2023-07-08T00:45:40;27.60;43.00
44723;DHT22;30451;48.638;10.624;2023-07-08T00:48:28;27.60;43.00
44723;DHT22;30451;48.638;10.624;2023-07-08T00:50:54;27.60;43.10
44723;DHT22;30451;48.638;10.624;2023-07-08T00:53:23;27.60;43.10
44723;DHT22;30451;48.638;10.624;2023-07-08T00:56:02;27.60;43.10
44723;DHT22;30451;48.638;10.624;2023-07-08T00:58:31;27.50;43.00
44723;DHT22;30451;48.638;10.624;2023-07-08T01:00:58;27.60;43.10
44723;DHT22;30451;48.638;10.624;2023-07-08T01:03:25;27.50;43.00
44723;DHT22;30451;48.638;10.624;2023-07-08T01:05:53;27.50;43.10
44723;DHT22;30451;48.638;10.624;2023-07-08T01:08:22;27.50;43.10
44723;DHT22;30451;48.638;10.624;2023-07-08T01:10:56;27.50;43.10
44723;DHT22;30451;48.638;10.624;2023-07-08T01:13:24;27.50;43.10
44723;DHT22;30451;48.638;10.624;2023-07-08T01:15:50;27.50;43.20
44723;DHT22;30451;48.638;10.624;2023-07-08T01:18:18;27.40;43.10
44723;DHT22;30451;48.638;10.624;2023-07-08T01:20:50;27.50;43.10
44723;DHT22;30451;48.638;10.624;2023-07-08T01:23:16;27.40;43.10
44723;DHT22;30451;48.638;10.624;2023-07-08T01:25:44;27.40;43.10
44723;DHT22;30451;48.638;10.624;2023-07-08T01:28:11;27.40;43.10
44723;DHT22;30451;48.638;10.624;2023-07-08T01:30:37;27.40;43.10
44723;DHT22;30451;48.638;10.624;2023-07-08T01:33:07;27.40;43.10
44723;DHT22;30451;48.638;10.624;2023-07-08T01:35:37;27.40;43.20
44723;DHT22;30451;48.638;10.624;2023-07-08T01:38:05;27.40;43.20
44723;DHT22;30451;48.638;10.624;2023-07-08T01:40:36;27.40;43.20
44723;DHT22;30451;48.638;10.624;2023-07-08T01:43:04;27.30;43.20
44723;DHT22;30451;48.638;10.624;2023-07-08T01:45:34;27.30;43.20
44723;DHT22;30451;48.638;10.624;2023-07-08T01:48:08;27.30;43.20
44723;DHT22;30451;48.638;10.624;2023-07-08T01:50:38;27.30;43.20
44723;DHT22;30451;48.638;10.624;2023-07-08T01:53:11;27.30;43.20
44723;DHT22;30451;48.638;10.624;2023-07-08T01:55:37;27.30;43.30
44723;DHT22;30451;48.638;10.624;2023-07-08T01:58:02;27.20;43.20
44723;DHT22;30451;48.638;10.624;2023-07-08T02:00:28;27.20;43.30
44723;DHT22;30451;48.638;10.624;2023-07-08T02:02:54;27.20;43.30
44723;DHT22;30451;48.638;10.624;2023-07-08T02:05:19;27.20;43.30
44723;DHT22;30451;48.638;10.624;2023-07-08T02:07:45;27.20;43.30
44723;DHT22;30451;48.638;10.624;2023-07-08T02:10:11;27.20;43.30
44723;DHT22;30451;48.638;10.624;2023-07-08T02:12:37;27.20;43.40
44723;DHT22;30451;48.638;10.624;2023-07-08T02:15:04;27.10;43.30
44723;DHT22;30451;48.638;10.624;2023-07-08T02:17:29;27.20;43.40
44723;DHT22;30451;48.638;10.624;2023-07-08T02:19:56;27.10;43.30
44723;DHT22;30451;48.638;10.624;2023-07-08T02:22:21;27.10;43.30
44723;DHT22;30451;48.638;10.624;2023-07-08T02:24:47;27.10;43.40
44723;DHT22;30451;48.638;10.624;2023-07-08T02:27:13;27.10;43.40
44723;DHT22;30451;48.638;10.624;2023-07-08T02:29:39;27.10;43.40
44723;DHT22;30451;48.638;10.624;2023-07-08T02:32:05;27.00;43.30
44723;DHT22;30451;48.638;10.624;2023-07-08T02:34:31;27.10;43.40
44723;DHT22;30451;48.638;10.624;2023-07-08T02:36:57;27.10;43.40
44723;DHT22;30451;48.638;10.624;2023-07-08T02:39:23;27.00;43.40
44723;DHT22;30451;48.638;10.624;2023-07-08T02:41:48;27.00;43.40
44723;DHT22;30451;48.638;10.624;2023-07-08T02:44:14;27.00;43.40
44723;DHT22;30451;48.638;10.624;2023-07-08T02:46:40;27.00;43.40
44723;DHT22;30451;48.638;10.624;2023-07-08T02:49:05;27.00;43.40
44723;DHT22;30451;48.638;10.624;2023-07-08T02:51:32;27.00;43.50
44723;DHT22;30451;48.638;10.624;2023-07-08T02:53:57;27.00;43.50
44723;DHT22;30451;48.638;10.624;2023-07-08T02:56:23;27.00;43.50
44723;DHT22;30451;48.638;10.624;2023-07-08T02:58:49;27.00;43.50
44723;DHT22;30451;48.638;10.624;2023-07-08T03:01:15;26.90;43.40
44723;DHT22;30451;48.638;10.624;2023-07-08T03:03:47;27.00;43.60
44723;DHT22;30451;48.638;10.624;2023-07-08T03:06:13;26.90;43.50
44723;DHT22;30451;48.638;10.624;2023-07-08T03:08:39;26.90;43.50
44723;DHT22;30451;48.638;10.624;2023-07-08T03:11:07;26.90;43.50
44723;DHT22;30451;48.638;10.624;2023-07-08T03:13:33;26.90;43.50
44723;DHT22;30451;48.638;10.624;2023-07-08T03:16:00;26.90;43.50
44723;DHT22;30451;48.638;10.624;2023-07-08T03:18:27;26.90;43.50
44723;DHT22;30451;48.638;10.624;2023-07-08T03:20:57;26.90;43.50
44723;DHT22;30451;48.638;10.624;2023-07-08T03:23:23;26.90;43.50
44723;DHT22;30451;48.638;10.624;2023-07-08T03:25:50;26.80;43.50
44723;DHT22;30451;48.638;10.624;2023-07-08T03:28:15;26.80;43.50
44723;DHT22;30451;48.638;10.624;2023-07-08T03:30:42;26.80;43.50
44723;DHT22;30451;48.638;10.624;2023-07-08T03:33:08;26.80;43.50
44723;DHT22;30451;48.638;10.624;2023-07-08T03:35:34;26.80;43.50
44723;DHT22;30451;48.638;10.624;2023-07-08T03:38:01;26.80;43.60
44723;DHT22;30451;48.638;10.624;2023-07-08T03:40:26;26.80;43.50
44723;DHT22;30451;48.638;10.624;2023-07-08T03:42:52;26.80;43.50
44723;DHT22;30451;48.638;10.624;2023-07-08T03:45:17;26.80;43.60
44723;DHT22;30451;48.638;10.624;2023-07-08T03:47:43;26.80;43.60
44723;DHT22;30451;48.638;10.624;2023-07-08T03:50:20;26.70;44.10
44723;DHT22;30451;48.638;10.624;2023-07-08T03:52:47;26.80;43.60
44723;DHT22;30451;48.638;10.624;2023-07-08T03:55:13;26.80;43.60
44723;DHT22;30451;48.638;10.624;2023-07-08T03:57:39;26.70;43.60
44723;DHT22;30451;48.638;10.624;2023-07-08T04:00:05;26.80;43.60
44723;DHT22;30451;48.638;10.624;2023-07-08T04:02:35;26.70;43.60
44723;DHT22;30451;48.638;10.624;2023-07-08T04:05:01;26.70;43.60
44723;DHT22;30451;48.638;10.624;2023-07-08T04:07:26;26.70;43.60
44723;DHT22;30451;48.638;10.624;2023-07-08T04:09:52;26.70;43.60
44723;DHT22;30451;48.638;10.624;2023-07-08T04:12:18;26.70;43.60
44723;DHT22;30451;48.638;10.624;2023-07-08T04:14:43;26.70;43.70
44723;DHT22;30451;48.638;10.624;2023-07-08T04:17:09;26.70;43.60
44723;DHT22;30451;48.638;10.624;2023-07-08T04:19:36;26.70;44.20
44723;DHT22;30451;48.638;10.624;2023-07-08T04:22:02;26.70;43.60
44723;DHT22;30451;48.638;10.624;2023-07-08T04:24:28;26.70;43.60
44723;DHT22;30451;48.638;10.624;2023-07-08T04:26:54;26.60;43.60
44723;DHT22;30451;48.638;10.624;2023-07-08T04:29:21;26.60;43.60
44723;DHT22;30451;48.638;10.624;2023-07-08T04:31:48;26.60;43.60
44723;DHT22;30451;48.638;10.624;2023-07-08T04:34:14;26.60;43.60
44723;DHT22;30451;48.638;10.624;2023-07-08T04:36:40;26.60;43.60
44723;DHT22;30451;48.638;10.624;2023-07-08T04:39:07;26.60;43.60
44723;DHT22;30451;48.638;10.624;2023-07-08T04:41:33;26.60;43.60
44723;DHT22;30451;48.638;10.624;2023-07-08T04:43:59;26.60;43.60
44723;DHT22;30451;48.638;10.624;2023-07-08T04:46:56;26.50;43.50
44723;DHT22;30451;48.638;10.624;2023-07-08T04:49:23;26.60;43.60
44723;DHT22;30451;48.638;10.624;2023-07-08T04:51:50;26.60;43.60
44723;DHT22;30451;48.638;10.624;2023-07-08T04:54:17;26.50;43.50
44723;DHT22;30451;48.638;10.624;2023-07-08T04:56:45;26.50;43.60
44723;DHT22;30451;48.638;10.624;2023-07-08T04:59:16;26.50;43.60
44723;DHT22;30451;48.638;10.624;2023-07-08T05:01:42;26.50;43.60
44723;DHT22;30451;48.638;10.624;2023-07-08T05:04:10;26.50;43.60
44723;DHT22;30451;48.638;10.624;2023-07-08T05:06:36;26.50;43.60
44723;DHT22;30451;48.638;10.624;2023-07-08T05:09:03;26.50;43.60
44723;DHT22;30451;48.638;10.624;2023-07-08T05:11:29;26.50;43.70
44723;DHT22;30451;48.638;10.624;2023-07-08T05:13:55;26.50;43.70
44723;DHT22;30451;48.638;10.624;2023-07-08T05:16:21;26.50;43.70
44723;DHT22;30451;48.638;10.624;2023-07-08T05:18:47;26.50;43.70
44723;DHT22;30451;48.638;10.624;2023-07-08T05:21:13;26.50;43.70
44723;DHT22;30451;48.638;10.624;2023-07-08T05:23:38;26.50;43.70
44723;DHT22;30451;48.638;10.624;2023-07-08T05:26:05;26.50;43.70
44723;DHT22;30451;48.638;10.624;2023-07-08T05:28:32;26.50;43.70
44723;DHT22;30451;48.638;10.624;2023-07-08T05:30:58;26.50;43.70
44723;DHT22;30451;48.638;10.624;2023-07-08T05:33:26;26.50;43.70
44723;DHT22;30451;48.638;10.624;2023-07-08T05:35:52;26.40;43.70
44723;DHT22;30451;48.638;10.624;2023-07-08T05:38:18;26.40;43.70
44723;DHT22;30451;48.638;10.624;2023-07-08T05:40:49;26.40;43.70
44723;DHT22;30451;48.638;10.624;2023-07-08T05:43:15;26.50;43.70
44723;DHT22;30451;48.638;10.624;2023-07-08T05:45:41;26.40;43.70
44723;DHT22;30451;48.638;10.624;2023-07-08T05:48:07;26.40;43.70
44723;DHT22;30451;48.638;10.624;2023-07-08T05:50:32;26.40;43.70
44723;DHT22;30451;48.638;10.624;2023-07-08T05:52:58;26.40;43.70
44723;DHT22;30451;48.638;10.624;2023-07-08T05:55:23;26.40;43.70
44723;DHT22;30451;48.638;10.624;2023-07-08T05:57:49;26.40;43.70
44723;DHT22;30451;48.638;10.624;2023-07-08T06:00:15;26.40;43.70
44723;DHT22;30451;48.638;10.624;2023-07-08T06:02:40;26.40;43.80
44723;DHT22;30451;48.638;10.624;2023-07-08T06:05:07;26.40;43.70
44723;DHT22;30451;48.638;10.624;2023-07-08T06:07:32;26.40;43.80
44723;DHT22;30451;48.638;10.624;2023-07-08T06:09:58;26.40;43.80
44723;DHT22;30451;48.638;10.624;2023-07-08T06:12:24;26.40;43.80
44723;DHT22;30451;48.638;10.624;2023-07-08T06:14:50;26.40;43.80
44723;DHT22;30451;48.638;10.624;2023-07-08T06:17:17;26.40;44.40
44723;DHT22;30451;48.638;10.624;2023-07-08T06:19:43;26.30;43.80
44723;DHT22;30451;48.638;10.624;2023-07-08T06:22:08;26.30;43.70
44723;DHT22;30451;48.638;10.624;2023-07-08T06:24:34;26.30;43.80
44723;DHT22;30451;48.638;10.624;2023-07-08T06:27:00;26.30;43.80
44723;DHT22;30451;48.638;10.624;2023-07-08T06:29:26;26.30;43.80
44723;DHT22;30451;48.638;10.624;2023-07-08T06:31:51;26.30;43.80
44723;DHT22;30451;48.638;10.624;2023-07-08T06:34:19;26.30;43.80
44723;DHT22;30451;48.638;10.624;2023-07-08T06:36:47;26.30;43.80
44723;DHT22;30451;48.638;10.624;2023-07-08T06:39:13;26.30;43.80
44723;DHT22;30451;48.638;10.624;2023-07-08T06:41:39;26.30;43.80
44723;DHT22;30451;48.638;10.624;2023-07-08T06:44:04;26.30;43.80
44723;DHT22;30451;48.638;10.624;2023-07-08T06:46:30;26.30;43.80
44723;DHT22;30451;48.638;10.624;2023-07-08T06:48:56;26.30;43.80
44723;DHT22;30451;48.638;10.624;2023-07-08T06:51:21;26.30;43.80
44723;DHT22;30451;48.638;10.624;2023-07-08T06:53:47;26.30;43.90
44723;DHT22;30451;48.638;10.624;2023-07-08T06:56:13;26.30;43.90
44723;DHT22;30451;48.638;10.624;2023-07-08T06:58:38;26.30;43.90
44723;DHT22;30451;48.638;10.624;2023-07-08T07:01:04;26.30;43.90
44723;DHT22;30451;48.638;10.624;2023-07-08T07:03:30;26.30;43.90
44723;DHT22;30451;48.638;10.624;2023-07-08T07:05:55;26.30;43.90
44723;DHT22;30451;48.638;10.624;2023-07-08T07:08:21;26.30;43.90
44723;DHT22;30451;48.638;10.624;2023-07-08T07:10:47;26.30;43.90
44723;DHT22;30451;48.638;10.624;2023-07-08T07:13:12;26.30;43.90
44723;DHT22;30451;48.638;10.624;2023-07-08T07:15:38;26.30;43.90
44723;DHT22;30451;48.638;10.624;2023-07-08T07:18:04;26.30;44.00
44723;DHT22;30451;48.638;10.624;2023-07-08T07:20:30;26.30;44.00
44723;DHT22;30451;48.638;10.624;2023-07-08T07:22:55;26.20;43.90
44723;DHT22;30451;48.638;10.624;2023-07-08T07:25:21;26.20;43.90
44723;DHT22;30451;48.638;10.624;2023-07-08T07:27:47;26.30;44.00
44723;DHT22;30451;48.638;10.624;2023-07-08T07:30:13;26.20;43.90
44723;DHT22;30451;48.638;10.624;2023-07-08T07:32:41;26.20;44.00
44723;DHT22;30451;48.638;10.624;2023-07-08T07:35:10;26.20;44.00
44723;DHT22;30451;48.638;10.624;2023-07-08T07:37:38;26.20;44.00
44723;DHT22;30451;48.638;10.624;2023-07-08T07:40:14;26.30;44.10
44723;DHT22;30451;48.638;10.624;2023-07-08T07:42:41;26.20;44.00
44723;DHT22;30451;48.638;10.624;2023-07-08T07:45:08;26.20;44.00
44723;DHT22;30451;48.638;10.624;2023-07-08T07:47:35;26.20;44.00
44723;DHT22;30451;48.638;10.624;2023-07-08T07:50:01;26.20;44.00
44723;DHT22;30451;48.638;10.624;2023-07-08T07:52:27;26.20;44.00
44723;DHT22;30451;48.638;10.624;2023-07-08T07:54:54;26.20;44.00
44723;DHT22;30451;48.638;10.624;2023-07-08T07:57:23;26.20;44.00
44723;DHT22;30451;48.638;10.624;2023-07-08T07:59:49;26.20;44.10
44723;DHT22;30451;48.638;10.624;2023-07-08T08:02:16;26.20;44.10
44723;DHT22;30451;48.638;10.624;2023-07-08T08:04:42;26.20;44.10
44723;DHT22;30451;48.638;10.624;2023-07-08T08:07:07;26.20;44.10
44723;DHT22;30451;48.638;10.624;2023-07-08T08:09:33;26.20;44.10
44723;DHT22;30451;48.638;10.624;2023-07-08T08:12:01;26.20;44.10
44723;DHT22;30451;48.638;10.624;2023-07-08T08:14:27;26.20;44.10
44723;DHT22;30451;48.638;10.624;2023-07-08T08:16:53;26.20;44.10
44723;DHT22;30451;48.638;10.624;2023-07-08T08:19:18;26.20;44.10
44723;DHT22;30451;48.638;10.624;2023-07-08T08:21:44;26.20;44.10
44723;DHT22;30451;48.638;10.624;2023-07-08T08:24:10;26.20;44.10
44723;DHT22;30451;48.638;10.624;2023-07-08T08:26:35;26.20;44.10
44723;DHT22;30451;48.638;10.624;2023-07-08T08:29:01;26.10;44.10
44723;DHT22;30451;48.638;10.624;2023-07-08T08:31:27;26.20;44.20
44723;DHT22;30451;48.638;10.624;2023-07-08T08:33:52;26.10;44.10
44723;DHT22;30451;48.638;10.624;2023-07-08T08:36:18;26.10;44.10
44723;DHT22;30451;48.638;10.624;2023-07-08T08:38:44;26.10;44.10
44723;DHT22;30451;48.638;10.624;2023-07-08T08:41:14;26.10;44.20
44723;DHT22;30451;48.638;10.624;2023-07-08T08:43:41;26.10;44.20
44723;DHT22;30451;48.638;10.624;2023-07-08T08:46:27;26.10;44.20
44723;DHT22;30451;48.638;10.624;2023-07-08T08:51:59;26.10;44.20
44723;DHT22;30451;48.638;10.624;2023-07-08T08:54:25;26.10;44.20
44723;DHT22;30451;48.638;10.624;2023-07-08T08:59:33;26.10;44.20
44723;DHT22;30451;48.638;10.624;2023-07-08T09:02:01;26.10;44.20
44723;DHT22;30451;48.638;10.624;2023-07-08T09:04:35;26.20;44.30
44723;DHT22;30451;48.638;10.624;2023-07-08T09:07:13;26.10;44.30
44723;DHT22;30451;48.638;10.624;2023-07-08T09:10:04;26.10;44.20
44723;DHT22;30451;48.638;10.624;2023-07-08T09:12:34;26.10;44.30
44723;DHT22;30451;48.638;10.624;2023-07-08T09:15:09;26.10;44.30
44723;DHT22;30451;48.638;10.624;2023-07-08T09:17:37;26.10;44.30
44723;DHT22;30451;48.638;10.624;2023-07-08T09:22:49;26.10;44.30
44723;DHT22;30451;48.638;10.624;2023-07-08T09:25:37;26.10;44.30
44723;DHT22;30451;48.638;10.624;2023-07-08T09:28:06;26.10;44.30
44723;DHT22;30451;48.638;10.624;2023-07-08T09:30:32;26.10;44.30
44723;DHT22;30451;48.638;10.624;2023-07-08T09:33:02;26.10;44.30
44723;DHT22;30451;48.638;10.624;2023-07-08T09:35:38;26.10;44.40
44723;DHT22;30451;48.638;10.624;2023-07-08T09:38:09;26.10;44.40
44723;DHT22;30451;48.638;10.624;2023-07-08T09:40:34;26.10;44.40
44723;DHT22;30451;48.638;10.624;2023-07-08T09:45:47;26.10;44.40
44723;DHT22;30451;48.638;10.624;2023-07-08T09:48:35;26.10;44.40
44723;DHT22;30451;48.638;10.624;2023-07-08T09:51:01;26.10;44.40
44723;DHT22;30451;48.638;10.624;2023-07-08T09:53:28;26.10;44.40
44723;DHT22;30451;48.638;10.624;2023-07-08T09:55:56;26.10;44.40
44723;DHT22;30451;48.638;10.624;2023-07-08T10:00:59;26.10;44.40
44723;DHT22;30451;48.638;10.624;2023-07-08T10:03:28;26.10;44.40
44723;DHT22;30451;48.638;10.624;2023-07-08T10:05:57;26.10;44.40
44723;DHT22;30451;48.638;10.624;2023-07-08T10:08:37;26.10;44.40
44723;DHT22;30451;48.638;10.624;2023-07-08T10:11:37;26.10;44.40
44723;DHT22;30451;48.638;10.624;2023-07-08T10:14:32;26.10;44.40
44723;DHT22;30451;48.638;10.624;2023-07-08T10:16:55;26.10;44.40
44723;DHT22;30451;48.638;10.624;2023-07-08T10:19:21;26.10;44.40
44723;DHT22;30451;48.638;10.624;2023-07-08T10:32:44;26.10;44.50
44723;DHT22;30451;48.638;10.624;2023-07-08T10:35:21;26.00;44.40
44723;DHT22;30451;48.638;10.624;2023-07-08T10:40:43;26.00;44.40
44723;DHT22;30451;48.638;10.624;2023-07-08T10:43:26;26.10;44.50
44723;DHT22;30451;48.638;10.624;2023-07-08T11:08:01;26.10;45.00
44723;DHT22;30451;48.638;10.624;2023-07-08T11:10:34;26.00;44.50
44723;DHT22;30451;48.638;10.624;2023-07-08T11:21:13;26.00;44.50
44723;DHT22;30451;48.638;10.624;2023-07-08T11:26:42;26.00;44.50
44723;DHT22;30451;48.638;10.624;2023-07-08T11:29:25;26.00;44.50
44723;DHT22;30451;48.638;10.624;2023-07-08T11:31:54;26.00;44.50
44723;DHT22;30451;48.638;10.624;2023-07-08T11:34:21;26.00;44.50
44723;DHT22;30451;48.638;10.624;2023-07-08T11:36:48;26.10;44.60
44723;DHT22;30451;48.638;10.624;2023-07-08T11:39:42;26.00;44.50
44723;DHT22;30451;48.638;10.624;2023-07-08T11:42:14;26.10;44.60
44723;DHT22;30451;48.638;10.624;2023-07-08T11:44:47;26.10;44.60
44723;DHT22;30451;48.638;10.624;2023-07-08T11:47:38;26.10;44.60
44723;DHT22;30451;48.638;10.624;2023-07-08T11:55:58;26.10;44.60
44723;DHT22;30451;48.638;10.624;2023-07-08T11:58:52;26.10;44.60
44723;DHT22;30451;48.638;10.624;2023-07-08T12:01:46;26.10;44.60
44723;DHT22;30451;48.638;10.624;2023-07-08T12:09:26;26.10;44.60
44723;DHT22;30451;48.638;10.624;2023-07-08T12:12:03;26.10;44.70
44723;DHT22;30451;48.638;10.624;2023-07-08T12:14:31;26.10;44.70
44723;DHT22;30451;48.638;10.624;2023-07-08T12:16:57;26.10;44.70
44723;DHT22;30451;48.638;10.624;2023-07-08T12:19:25;26.10;44.70
44723;DHT22;30451;48.638;10.624;2023-07-08T12:21:54;26.10;44.70
44723;DHT22;30451;48.638;10.624;2023-07-08T12:24:20;26.10;44.70
44723;DHT22;30451;48.638;10.624;2023-07-08T12:26:51;26.10;44.70
44723;DHT22;30451;48.638;10.624;2023-07-08T12:29:17;26.10;44.70
44723;DHT22;30451;48.638;10.624;2023-07-08T12:31:43;26.10;44.70
44723;DHT22;30451;48.638;10.624;2023-07-08T12:34:13;26.10;44.80
44723;DHT22;30451;48.638;10.624;2023-07-08T12:36:39;26.10;44.70
44723;DHT22;30451;48.638;10.624;2023-07-08T12:39:05;26.10;44.70
44723;DHT22;30451;48.638;10.624;2023-07-08T12:41:33;26.10;44.80
44723;DHT22;30451;48.638;10.624;2023-07-08T12:44:00;26.10;44.80
44723;DHT22;30451;48.638;10.624;2023-07-08T12:46:28;26.10;45.30
44723;DHT22;30451;48.638;10.624;2023-07-08T12:48:54;26.10;44.80
44723;DHT22;30451;48.638;10.624;2023-07-08T12:51:21;26.10;44.80
44723;DHT22;30451;48.638;10.624;2023-07-08T12:53:49;26.10;44.80
44723;DHT22;30451;48.638;10.624;2023-07-08T12:56:16;26.10;44.90
44723;DHT22;30451;48.638;10.624;2023-07-08T12:58:45;26.10;44.90
44723;DHT22;30451;48.638;10.624;2023-07-08T13:01:17;26.10;44.90
44723;DHT22;30451;48.638;10.624;2023-07-08T13:03:45;26.10;44.90
44723;DHT22;30451;48.638;10.624;2023-07-08T13:06:16;26.10;44.90
44723;DHT22;30451;48.638;10.624;2023-07-08T13:08:43;26.10;44.80
44723;DHT22;30451;48.638;10.624;2023-07-08T13:11:14;26.10;44.80
44723;DHT22;30451;48.638;10.624;2023-07-08T13:13:47;26.20;44.90
44723;DHT22;30451;48.638;10.624;2023-07-08T13:16:14;26.10;44.90
44723;DHT22;30451;48.638;10.624;2023-07-08T13:18:41;26.20;44.90
44723;DHT22;30451;48.638;10.624;2023-07-08T13:21:11;26.10;44.80
44723;DHT22;30451;48.638;10.624;2023-07-08T13:23:38;26.10;44.80
44723;DHT22;30451;48.638;10.624;2023-07-08T13:26:14;26.20;44.80
44723;DHT22;30451;48.638;10.624;2023-07-08T13:28:40;26.10;44.80
44723;DHT22;30451;48.638;10.624;2023-07-08T13:31:22;26.20;44.80
44723;DHT22;30451;48.638;10.624;2023-07-08T13:33:50;26.20;44.80
44723;DHT22;30451;48.638;10.624;2023-07-08T13:36:19;26.20;44.80
44723;DHT22;30451;48.638;10.624;2023-07-08T13:38:45;26.20;44.80
44723;DHT22;30451;48.638;10.624;2023-07-08T13:41:19;26.20;44.80
44723;DHT22;30451;48.638;10.624;2023-07-08T13:43:45;26.20;44.90
44723;DHT22;30451;48.638;10.624;2023-07-08T13:46:33;26.20;44.80
44723;DHT22;30451;48.638;10.624;2023-07-08T13:49:19;26.20;44.80
44723;DHT22;30451;48.638;10.624;2023-07-08T13:51:46;26.20;44.80
44723;DHT22;30451;48.638;10.624;2023-07-08T13:54:27;26.20;44.80
44723;DHT22;30451;48.638;10.624;2023-07-08T13:57:00;26.30;44.90
44723;DHT22;30451;48.638;10.624;2023-07-08T13:59:26;26.30;44.90
44723;DHT22;30451;48.638;10.624;2023-07-08T14:01:54;26.20;44.80
44723;DHT22;30451;48.638;10.624;2023-07-08T14:04:26;26.30;44.90
44723;DHT22;30451;48.638;10.624;2023-07-08T14:06:53;26.30;44.90
44723;DHT22;30451;48.638;10.624;2023-07-08T14:09:21;26.30;45.00
44723;DHT22;30451;48.638;10.624;2023-07-08T14:11:48;26.30;45.00
44723;DHT22;30451;48.638;10.624;2023-07-08T14:14:15;26.30;45.00
44723;DHT22;30451;48.638;10.624;2023-07-08T14:16:43;26.30;45.00
44723;DHT22;30451;48.638;10.624;2023-07-08T14:19:35;26.30;44.90
44723;DHT22;30451;48.638;10.624;2023-07-08T14:24:42;26.30;45.00
44723;DHT22;30451;48.638;10.624;2023-07-08T14:27:10;26.30;45.00
44723;DHT22;30451;48.638;10.624;2023-07-08T14:29:40;26.30;45.00
44723;DHT22;30451;48.638;10.624;2023-07-08T14:32:20;26.30;45.30
44723;DHT22;30451;48.638;10.624;2023-07-08T14:34:52;26.30;45.00
44723;DHT22;30451;48.638;10.624;2023-07-08T14:37:19;26.30;45.00
44723;DHT22;30451;48.638;10.624;2023-07-08T14:39:44;26.30;45.10
44723;DHT22;30451;48.638;10.624;2023-07-08T14:42:15;26.40;45.10
44723;DHT22;30451;48.638;10.624;2023-07-08T14:44:44;26.40;45.10
44723;DHT22;30451;48.638;10.624;2023-07-08T14:47:13;26.40;45.10
44723;DHT22;30451;48.638;10.624;2023-07-08T14:49:39;26.40;45.10
44723;DHT22;30451;48.638;10.624;2023-07-08T14:52:06;26.40;45.10
44723;DHT22;30451;48.638;10.624;2023-07-08T14:54:32;26.40;45.10
44723;DHT22;30451;48.638;10.624;2023-07-08T14:56:58;26.40;45.20
44723;DHT22;30451;48.638;10.624;2023-07-08T14:59:27;26.40;45.20
44723;DHT22;30451;48.638;10.624;2023-07-08T15:01:55;26.40;45.30
44723;DHT22;30451;48.638;10.624;2023-07-08T15:04:21;26.40;45.30
44723;DHT22;30451;48.638;10.624;2023-07-08T15:06:47;26.40;45.30
44723;DHT22;30451;48.638;10.624;2023-07-08T15:09:15;26.50;45.30
44723;DHT22;30451;48.638;10.624;2023-07-08T15:11:42;26.50;45.30
44723;DHT22;30451;48.638;10.624;2023-07-08T15:14:20;26.50;45.30
44723;DHT22;30451;48.638;10.624;2023-07-08T15:16:46;26.50;45.30
44723;DHT22;30451;48.638;10.624;2023-07-08T15:19:12;26.50;45.30
44723;DHT22;30451;48.638;10.624;2023-07-08T15:21:39;26.50;45.30
44723;DHT22;30451;48.638;10.624;2023-07-08T15:24:09;26.50;45.50
44723;DHT22;30451;48.638;10.624;2023-07-08T15:26:43;26.50;46.20
44723;DHT22;30451;48.638;10.624;2023-07-08T15:29:21;26.50;45.70
44723;DHT22;30451;48.638;10.624;2023-07-08T15:31:47;26.50;45.80
44723;DHT22;30451;48.638;10.624;2023-07-08T15:34:20;26.60;45.80
44723;DHT22;30451;48.638;10.624;2023-07-08T15:36:47;26.50;45.80
44723;DHT22;30451;48.638;10.624;2023-07-08T15:39:12;26.60;45.90
44723;DHT22;30451;48.638;10.624;2023-07-08T15:41:42;26.60;45.90
44723;DHT22;30451;48.638;10.624;2023-07-08T15:44:12;26.50;45.80
44723;DHT22;30451;48.638;10.624;2023-07-08T15:46:42;26.60;45.90
44723;DHT22;30451;48.638;10.624;2023-07-08T15:49:14;26.60;45.80
44723;DHT22;30451;48.638;10.624;2023-07-08T15:51:41;26.60;45.90
44723;DHT22;30451;48.638;10.624;2023-07-08T15:54:06;26.60;45.90
44723;DHT22;30451;48.638;10.624;2023-07-08T15:56:32;26.60;45.90
44723;DHT22;30451;48.638;10.624;2023-07-08T15:58:58;26.60;45.90
44723;DHT22;30451;48.638;10.624;2023-07-08T16:01:24;26.60;46.00
44723;DHT22;30451;48.638;10.624;2023-07-08T16:03:50;26.70;46.00
44723;DHT22;30451;48.638;10.624;2023-07-08T16:06:16;26.70;46.00
44723;DHT22;30451;48.638;10.624;2023-07-08T16:08:43;26.70;46.60
44723;DHT22;30451;48.638;10.624;2023-07-08T16:11:18;26.70;46.00
44723;DHT22;30451;48.638;10.624;2023-07-08T16:13:46;26.70;45.90
44723;DHT22;30451;48.638;10.624;2023-07-08T16:16:12;26.70;45.90
44723;DHT22;30451;48.638;10.624;2023-07-08T16:18:38;26.70;45.80
44723;DHT22;30451;48.638;10.624;2023-07-08T16:21:05;26.70;46.30
44723;DHT22;30451;48.638;10.624;2023-07-08T16:23:30;26.70;45.80
44723;DHT22;30451;48.638;10.624;2023-07-08T16:25:56;26.70;45.80
44723;DHT22;30451;48.638;10.624;2023-07-08T16:28:40;26.70;45.70
44723;DHT22;30451;48.638;10.624;2023-07-08T16:31:15;26.70;45.80
44723;DHT22;30451;48.638;10.624;2023-07-08T16:33:41;26.70;45.70
44723;DHT22;30451;48.638;10.624;2023-07-08T16:36:12;26.80;45.70
44723;DHT22;30451;48.638;10.624;2023-07-08T16:38:39;26.70;45.90